Time;durP1;ratioP1;P1;durP2;ratioP2;P2;SDS_P1;SDS_P2;PMS_P1;PMS_P2;Temp;Humidity;BMP_temperature;BMP_pressure;BME280_temperature;BME280_humidity;BME280_pressure;Samples;Min_cycle;Max_cycle;Signal;HPM_P1;HPM_P2
2023/02/26 00:00:14;;;;;;;5.32;2.90;;;2.20;99.90;;;;;;2044415;28;20038;-72
2023/02/26 00:01:16;;;;;;;4.32;2.28;;;2.20;99.90;;;;;;2045354;28;20110;-72
2023/02/26 00:02:16;;;;;;;6.85;2.95;;;2.20;99.90;;;;;;2037840;29;20024;-72
2023/02/26 00:03:17;;;;;;;5.88;2.33;;;2.30;99.90;;;;;;2036484;29;20034;-72
2023/02/26 00:04:17;;;;;;;3.45;2.45;;;2.20;99.90;;;;;;2044168;28;20050;-72
2023/02/26 00:05:18;;;;;;;3.65;2.70;;;2.20;99.90;;;;;;2044333;29;20035;-72
2023/02/26 00:06:19;;;;;;;6.13;2.60;;;2.20;99.90;;;;;;2046116;28;20020;-72
2023/02/26 00:07:20;;;;;;;5.90;2.65;;;2.20;99.90;;;;;;2044172;28;20587;-72
2023/02/26 00:08:20;;;;;;;6.38;2.30;;;2.20;99.90;;;;;;2036065;29;20587;-72
2023/02/26 00:09:21;;;;;;;7.82;2.38;;;2.20;99.90;;;;;;2036851;29;20036;-72
2023/02/26 00:10:22;;;;;;;5.13;2.08;;;2.20;99.90;;;;;;2043385;28;20880;-72
2023/02/26 00:11:23;;;;;;;7.82;2.63;;;2.20;99.90;;;;;;2045917;28;20028;-72
2023/02/26 00:12:23;;;;;;;5.65;2.17;;;2.20;99.90;;;;;;2045915;28;20843;-72
2023/02/26 00:13:24;;;;;;;4.88;2.13;;;2.10;99.90;;;;;;2046299;28;20031;-72
2023/02/26 00:14:25;;;;;;;5.82;2.30;;;2.10;99.90;;;;;;2044976;28;20043;-72
2023/02/26 00:15:26;;;;;;;7.72;2.42;;;2.10;99.90;;;;;;2045820;28;20019;-72
2023/02/26 00:16:30;;;;;;;5.22;2.35;;;2.10;99.90;;;;;;2045056;28;20118;-72
2023/02/26 00:18:18;;;;;;;5.60;2.30;;;2.10;99.90;;;;;;2043770;28;20066;-72
2023/02/26 00:19:19;;;;;;;7.22;2.42;;;2.10;99.90;;;;;;2035674;29;20035;-72
2023/02/26 00:20:20;;;;;;;6.72;2.08;;;2.00;99.90;;;;;;2043912;28;20035;-72
2023/02/26 00:21:22;;;;;;;5.13;2.53;;;2.00;99.90;;;;;;2044401;28;20026;-72
2023/02/26 00:22:23;;;;;;;3.45;1.83;;;2.00;99.90;;;;;;2044862;28;20425;-72
2023/02/26 00:23:24;;;;;;;4.60;1.90;;;2.00;99.90;;;;;;2043786;28;20093;-72
2023/02/26 00:24:24;;;;;;;3.53;2.00;;;2.00;99.90;;;;;;2043616;28;20058;-72
2023/02/26 00:25:25;;;;;;;4.75;1.90;;;2.00;99.90;;;;;;2045451;28;20079;-72
2023/02/26 00:26:27;;;;;;;4.75;2.00;;;2.00;99.90;;;;;;2045279;28;20027;-72
2023/02/26 00:27:27;;;;;;;4.25;2.00;;;2.00;99.90;;;;;;2047304;28;20027;-72
2023/02/26 00:28:28;;;;;;;7.90;2.60;;;2.00;99.90;;;;;;2045801;28;20645;-72
2023/02/26 00:29:29;;;;;;;4.15;1.95;;;2.00;99.90;;;;;;2045550;28;20027;-72
2023/02/26 00:30:30;;;;;;;4.47;2.40;;;2.00;99.90;;;;;;2045107;28;20062;-72
2023/02/26 00:31:30;;;;;;;5.22;1.65;;;2.00;99.90;;;;;;2045558;28;20067;-72
2023/02/26 00:32:32;;;;;;;4.78;1.73;;;2.00;99.90;;;;;;2043311;28;20032;-72
2023/02/26 00:33:33;;;;;;;5.65;2.33;;;2.00;99.90;;;;;;2045588;29;20525;-72
2023/02/26 00:34:34;;;;;;;5.20;2.10;;;2.00;99.90;;;;;;2044614;28;20705;-72
2023/02/26 00:35:35;;;;;;;5.55;1.90;;;2.00;99.90;;;;;;2044629;28;20037;-72
2023/02/26 00:36:38;;;;;;;4.78;2.38;;;2.00;99.90;;;;;;2045398;28;20114;-72
2023/02/26 00:37:55;;;;;;;6.95;2.33;;;2.00;99.90;;;;;;2045474;28;20122;-72
2023/02/26 00:39:13;;;;;;;5.05;2.20;;;2.00;99.90;;;;;;2044968;28;20034;-72
2023/02/26 00:40:16;;;;;;;2.88;1.67;;;2.00;99.90;;;;;;2044571;28;20184;-72
2023/02/26 00:41:17;;;;;;;6.03;2.08;;;2.00;99.90;;;;;;2044903;28;20031;-72
2023/02/26 00:42:18;;;;;;;9.35;2.10;;;2.00;99.90;;;;;;2043840;28;20475;-72
2023/02/26 00:43:25;;;;;;;8.90;2.15;;;2.00;99.90;;;;;;2043835;28;20027;-72
2023/02/26 00:44:26;;;;;;;6.03;2.00;;;2.00;99.90;;;;;;2044466;28;20030;-72
2023/02/26 00:45:26;;;;;;;5.13;2.22;;;2.00;99.90;;;;;;2042208;28;20625;-72
2023/02/26 00:46:40;;;;;;;7.15;2.25;;;2.00;99.90;;;;;;2042401;28;20106;-72
2023/02/26 00:47:40;;;;;;;3.63;1.80;;;2.00;99.90;;;;;;2045771;28;20016;-72
2023/02/26 00:49:14;;;;;;;3.25;2.00;;;2.00;99.90;;;;;;2045148;28;20047;-72
2023/02/26 00:50:23;;;;;;;4.45;2.05;;;2.10;99.90;;;;;;2042084;28;20030;-72
2023/02/26 00:51:49;;;;;;;5.03;2.08;;;2.00;99.90;;;;;;2044531;28;20102;-72
2023/02/26 00:53:23;;;;;;;5.30;1.90;;;2.10;99.90;;;;;;2043061;28;20115;-72
2023/02/26 00:54:29;;;;;;;2.42;1.48;;;2.00;99.90;;;;;;2044554;28;20038;-72
2023/02/26 00:55:29;;;;;;;5.57;1.92;;;2.00;99.90;;;;;;2044708;28;20478;-72
2023/02/26 00:56:30;;;;;;;5.97;2.22;;;2.00;99.90;;;;;;2045337;28;20047;-72
2023/02/26 00:57:31;;;;;;;4.10;2.13;;;2.10;99.90;;;;;;2045026;28;20158;-72
2023/02/26 00:58:31;;;;;;;3.70;1.67;;;2.10;99.90;;;;;;2045831;28;20055;-72
2023/02/26 00:59:32;;;;;;;3.30;1.90;;;2.10;99.90;;;;;;2045285;28;20026;-72
2023/02/26 01:00:33;;;;;;;6.30;2.20;;;2.10;99.90;;;;;;2044897;28;20058;-72
2023/02/26 01:01:33;;;;;;;5.05;2.03;;;2.20;99.90;;;;;;2044456;28;20610;-72
2023/02/26 01:02:35;;;;;;;3.90;1.80;;;2.10;99.90;;;;;;2044815;28;20070;-72
2023/02/26 01:03:36;;;;;;;3.25;1.60;;;2.20;99.90;;;;;;2045669;28;20470;-72
2023/02/26 01:04:37;;;;;;;4.88;2.40;;;2.20;99.90;;;;;;2042634;29;20020;-72
2023/02/26 01:05:37;;;;;;;5.13;2.05;;;2.20;99.90;;;;;;2045293;28;20094;-72
2023/02/26 01:06:45;;;;;;;5.40;1.80;;;2.20;99.90;;;;;;2043691;28;20026;-72
2023/02/26 01:08:10;;;;;;;6.13;2.08;;;2.20;99.90;;;;;;2043516;28;20118;-72
2023/02/26 01:09:16;;;;;;;9.35;2.10;;;2.20;99.90;;;;;;2044347;28;20542;-72
2023/02/26 01:10:17;;;;;;;4.38;1.70;;;2.20;99.90;;;;;;2036568;29;20031;-72
2023/02/26 01:11:18;;;;;;;4.70;2.00;;;2.20;99.90;;;;;;2036337;29;20072;-72
2023/02/26 01:12:19;;;;;;;7.53;2.50;;;2.30;99.90;;;;;;2045594;28;20016;-72
2023/02/26 01:13:20;;;;;;;4.15;1.63;;;2.30;99.90;;;;;;2045326;28;20041;-72
2023/02/26 01:14:21;;;;;;;4.55;1.80;;;2.30;99.90;;;;;;2044189;28;20055;-72
2023/02/26 01:15:25;;;;;;;4.53;1.83;;;2.30;99.90;;;;;;2042056;28;20031;-72
2023/02/26 01:16:29;;;;;;;3.92;1.70;;;2.30;99.90;;;;;;2044457;28;20030;-72
2023/02/26 01:18:11;;;;;;;6.45;1.88;;;2.30;99.90;;;;;;2044559;28;20046;-72
2023/02/26 01:19:24;;;;;;;6.30;1.90;;;2.30;99.90;;;;;;2034953;29;20051;-72
2023/02/26 01:20:34;;;;;;;5.32;2.00;;;2.30;99.90;;;;;;2044834;28;20070;-72
2023/02/26 01:21:40;;;;;;;2.55;1.70;;;2.30;99.90;;;;;;2043391;28;20093;-72
2023/02/26 01:22:59;;;;;;;3.60;1.77;;;2.30;99.90;;;;;;2036541;29;20031;-72
2023/02/26 01:24:04;;;;;;;2.88;1.52;;;2.30;99.90;;;;;;2037423;29;20084;-72
2023/02/26 01:25:09;;;;;;;3.67;1.67;;;2.30;99.90;;;;;;2044848;29;20179;-72
2023/02/26 01:26:20;;;;;;;4.45;1.92;;;2.40;99.90;;;;;;2043534;28;20023;-72
2023/02/26 01:27:21;;;;;;;5.03;2.25;;;2.40;99.90;;;;;;2043622;28;20122;-72
2023/02/26 01:28:22;;;;;;;4.07;2.00;;;2.40;99.90;;;;;;2045242;28;20023;-72
2023/02/26 01:29:23;;;;;;;5.53;2.25;;;2.40;99.90;;;;;;2044533;28;20122;-72
2023/02/26 01:30:24;;;;;;;2.70;1.73;;;2.40;99.90;;;;;;2043994;28;20496;-72
2023/02/26 01:31:39;;;;;;;4.90;2.03;;;2.40;99.90;;;;;;2044146;28;20089;-72
2023/02/26 01:33:06;;;;;;;5.13;2.13;;;2.40;99.90;;;;;;2043166;28;20027;-72
2023/02/26 01:34:18;;;;;;;7.03;1.65;;;2.40;99.90;;;;;;2045302;28;20042;-72
2023/02/26 01:35:40;;;;;;;3.83;1.55;;;2.40;99.90;;;;;;2044872;28;20031;-72
2023/02/26 01:36:55;;;;;;;4.32;1.63;;;2.40;99.90;;;;;;2045162;28;20023;-72
2023/02/26 01:38:13;;;;;;;4.88;1.70;;;2.40;99.90;;;;;;2036217;29;20114;-72
2023/02/26 01:39:39;;;;;;;2.63;1.50;;;2.40;99.90;;;;;;2038453;29;20024;-72
2023/02/26 01:41:18;;;;;;;5.28;1.45;;;2.40;99.90;;;;;;2041411;28;20494;-72
2023/02/26 01:42:22;;;;;;;4.93;2.15;;;2.40;99.90;;;;;;2044508;28;20027;-72
2023/02/26 01:43:34;;;;;;;4.18;1.75;;;2.40;99.90;;;;;;2043265;28;20090;-72
2023/02/26 01:44:58;;;;;;;4.88;1.70;;;2.40;99.90;;;;;;2042535;28;20019;-72
2023/02/26 01:46:07;;;;;;;3.58;1.40;;;2.40;99.90;;;;;;2043930;28;20027;-72
2023/02/26 01:47:38;;;;;;;4.82;2.00;;;2.40;99.90;;;;;;2043684;28;20035;-72
2023/02/26 01:48:49;;;;;;;;;;;2.30;99.90;;;;;;2037113;29;20110;-72
2023/02/26 01:49:50;;;;;;;2.55;1.10;;;2.30;99.90;;;;;;2036410;29;19915;-72
2023/02/26 01:50:50;;;;;;;3.47;1.88;;;2.30;99.90;;;;;;2044124;28;20023;-72
2023/02/26 01:51:59;;;;;;;4.90;1.90;;;2.30;99.90;;;;;;2044017;28;20500;-72
2023/02/26 01:53:08;;;;;;;8.82;1.60;;;2.30;99.90;;;;;;2043699;28;20146;-72
2023/02/26 01:54:09;;;;;;;2.58;1.55;;;2.30;99.90;;;;;;2043420;28;20078;-72
2023/02/26 01:55:09;;;;;;;3.00;1.38;;;2.30;99.90;;;;;;2045056;28;20035;-72
2023/02/26 01:56:17;;;;;;;4.47;1.63;;;2.30;99.90;;;;;;2045575;28;20047;-72
2023/02/26 01:57:20;;;;;;;5.82;1.65;;;2.40;99.90;;;;;;2046075;28;20016;-72
2023/02/26 01:58:21;;;;;;;3.22;1.42;;;2.30;99.90;;;;;;2042878;28;20011;-72
2023/02/26 01:59:25;;;;;;;4.05;1.75;;;2.30;99.90;;;;;;2043339;28;20034;-72
2023/02/26 02:00:26;;;;;;;3.63;2.00;;;2.30;99.90;;;;;;2042702;28;20023;-72
2023/02/26 02:01:26;;;;;;;7.43;1.70;;;2.30;99.90;;;;;;2045104;28;20019;-72
2023/02/26 02:02:27;;;;;;;4.20;1.60;;;2.30;99.90;;;;;;2045718;28;20079;-72
2023/02/26 02:03:31;;;;;;;2.58;1.45;;;2.30;99.90;;;;;;2034479;28;20032;-72
2023/02/26 02:04:32;;;;;;;2.20;1.25;;;2.30;99.90;;;;;;2036360;29;20531;-72
2023/02/26 02:05:56;;;;;;;4.00;1.73;;;2.30;99.90;;;;;;2043205;28;20629;-72
2023/02/26 02:06:57;;;;;;;1.85;1.48;;;2.30;99.90;;;;;;2043653;28;20024;-72
2023/02/26 02:07:59;;;;;;;6.00;1.95;;;2.30;99.90;;;;;;2044215;28;20051;-72
2023/02/26 02:09:01;;;;;;;4.40;1.23;;;2.30;99.90;;;;;;2044081;28;20023;-72
2023/02/26 02:10:03;;;;;;;2.95;1.65;;;2.30;99.90;;;;;;2043227;28;20551;-72
2023/02/26 02:11:07;;;;;;;2.90;1.55;;;2.30;99.90;;;;;;2045558;28;20035;-72
2023/02/26 02:12:20;;;;;;;4.35;1.65;;;2.30;99.90;;;;;;2044697;28;20028;-72
2023/02/26 02:13:58;;;;;;;4.97;1.63;;;2.30;99.90;;;;;;2045566;28;20077;-72
2023/02/26 02:15:12;;;;;;;4.05;1.40;;;2.30;99.90;;;;;;2043384;28;20041;-72
2023/02/26 02:16:18;;;;;;;2.85;1.40;;;2.30;99.90;;;;;;2044727;28;20019;-72
2023/02/26 02:17:38;;;;;;;2.65;1.30;;;2.20;99.90;;;;;;2035767;29;20487;-72
2023/02/26 02:18:50;;;;;;;2.58;1.20;;;2.30;99.90;;;;;;2036640;28;20028;-72
2023/02/26 02:20:05;;;;;;;3.92;1.23;;;2.20;99.90;;;;;;2043293;28;20376;-72
2023/02/26 02:21:20;;;;;;;5.85;1.40;;;2.20;99.90;;;;;;2043052;28;20024;-72
2023/02/26 02:22:47;;;;;;;4.93;1.40;;;2.20;99.90;;;;;;2044422;28;20023;-72
2023/02/26 02:24:08;;;;;;;3.33;1.20;;;2.20;99.90;;;;;;2043306;28;20382;-72
2023/02/26 02:26:06;;;;;;;7.85;2.67;;;2.20;99.90;;;;;;2045507;28;20479;-72
2023/02/26 02:27:09;;;;;;;4.13;1.60;;;2.20;99.90;;;;;;2034226;29;20519;-72
2023/02/26 02:28:54;;;;;;;6.97;1.92;;;2.10;99.90;;;;;;2042544;28;20458;-72
2023/02/26 02:30:23;;;;;;;7.97;1.58;;;2.20;99.90;;;;;;2043328;28;20134;-72
2023/02/26 02:31:28;;;;;;;4.85;1.83;;;2.10;99.90;;;;;;2045809;29;20042;-72
2023/02/26 02:32:32;;;;;;;4.35;1.50;;;2.10;99.90;;;;;;2043752;28;20023;-72
2023/02/26 02:33:59;;;;;;;4.53;1.60;;;2.10;99.90;;;;;;2043925;28;20055;-72
2023/02/26 02:35:03;;;;;;;2.53;1.40;;;2.10;99.90;;;;;;2044760;28;20042;-72
2023/02/26 02:36:09;;;;;;;5.53;2.38;;;2.10;99.90;;;;;;2043714;28;20078;-72
2023/02/26 02:37:16;;;;;;;5.63;2.10;;;2.10;99.90;;;;;;2043962;28;20384;-72
2023/02/26 02:38:30;;;;;;;5.25;2.00;;;2.10;99.90;;;;;;2043071;28;20114;-71
2023/02/26 02:39:41;;;;;;;4.93;1.60;;;2.10;99.90;;;;;;2045581;28;20058;-71
2023/02/26 02:40:47;;;;;;;4.70;1.70;;;2.10;99.90;;;;;;2037258;29;20042;-72
2023/02/26 02:41:57;;;;;;;5.85;1.80;;;2.10;99.90;;;;;;2037145;29;20503;-72
2023/02/26 02:43:00;;;;;;;;;;;2.10;99.90;;;;;;2045737;28;20127;-72
2023/02/26 02:44:04;;;;;;;4.03;1.60;;;2.00;99.90;;;;;;2044320;28;19911;-72
2023/02/26 02:45:19;;;;;;;5.40;1.65;;;2.00;99.90;;;;;;2043377;29;20069;-72
2023/02/26 02:46:27;;;;;;;5.03;1.88;;;2.10;99.90;;;;;;2045093;28;20027;-72
2023/02/26 02:47:32;;;;;;;3.47;1.88;;;2.00;99.90;;;;;;2043300;28;20653;-72
2023/02/26 02:48:38;;;;;;;4.25;1.67;;;2.00;99.90;;;;;;2044620;28;20617;-72
2023/02/26 02:49:45;;;;;;;7.15;1.60;;;2.00;99.90;;;;;;2045413;28;20563;-72
2023/02/26 02:50:50;;;;;;;4.80;1.88;;;2.00;99.90;;;;;;2043484;28;20027;-72
2023/02/26 02:51:55;;;;;;;4.20;1.52;;;2.00;99.90;;;;;;2044579;28;20024;-72
2023/02/26 02:53:08;;;;;;;4.43;1.85;;;2.00;99.90;;;;;;2044237;28;20030;-72
2023/02/26 02:54:29;;;;;;;4.43;1.35;;;2.00;99.90;;;;;;2045419;29;20050;-72
2023/02/26 02:55:35;;;;;;;3.22;1.58;;;2.00;99.90;;;;;;2045545;28;20035;-72
2023/02/26 02:56:48;;;;;;;6.28;1.85;;;2.00;99.90;;;;;;2044789;28;20028;-72
2023/02/26 02:57:59;;;;;;;3.00;1.50;;;2.00;99.90;;;;;;2047268;28;20035;-72
2023/02/26 02:59:23;;;;;;;3.83;1.23;;;2.00;99.90;;;;;;2045292;28;20039;-72
2023/02/26 03:00:26;;;;;;;5.72;2.08;;;1.90;99.90;;;;;;2044820;28;20023;-71
2023/02/26 03:01:28;;;;;;;5.60;1.63;;;2.00;99.90;;;;;;2046044;28;20091;-72
2023/02/26 03:02:48;;;;;;;2.63;1.45;;;2.00;99.90;;;;;;2045925;28;20036;-72
2023/02/26 03:03:59;;;;;;;5.32;1.70;;;2.00;99.90;;;;;;2036614;29;20040;-72
2023/02/26 03:05:00;;;;;;;4.72;1.58;;;2.00;99.90;;;;;;2038274;29;20019;-72
2023/02/26 03:06:01;;;;;;;4.32;1.40;;;1.90;99.90;;;;;;2037267;29;20822;-72
2023/02/26 03:07:01;;;;;;;3.92;1.55;;;1.90;99.90;;;;;;2038770;29;20119;-71
2023/02/26 03:08:09;;;;;;;3.58;1.75;;;1.90;99.90;;;;;;2044475;28;20030;-71
2023/02/26 03:09:10;;;;;;;6.20;1.40;;;1.90;99.90;;;;;;2035992;29;20511;-71
2023/02/26 03:10:11;;;;;;;2.65;1.40;;;1.90;99.90;;;;;;2036816;29;20505;-71
2023/02/26 03:11:12;;;;;;;4.07;1.55;;;1.90;99.90;;;;;;2045301;28;20028;-71
2023/02/26 03:12:13;;;;;;;4.70;1.67;;;1.90;99.90;;;;;;2045852;28;20507;-71
2023/02/26 03:13:16;;;;;;;4.03;1.48;;;1.90;99.90;;;;;;2046083;28;20503;-71
2023/02/26 03:14:17;;;;;;;3.38;1.63;;;1.90;99.90;;;;;;2044445;28;20024;-71
2023/02/26 03:15:28;;;;;;;3.45;1.70;;;1.90;99.90;;;;;;2044399;28;20032;-72
2023/02/26 03:16:33;;;;;;;2.80;1.50;;;1.90;99.90;;;;;;2044213;28;20424;-72
2023/02/26 03:17:57;;;;;;;6.20;2.00;;;1.90;99.90;;;;;;2045236;29;20093;-72
2023/02/26 03:19:22;;;;;;;4.10;1.55;;;1.80;99.90;;;;;;2046164;28;20057;-72
2023/02/26 03:20:32;;;;;;;2.38;1.35;;;1.80;99.90;;;;;;2044742;28;20027;-71
2023/02/26 03:21:46;;;;;;;3.40;1.88;;;1.80;99.90;;;;;;2045314;28;20069;-71
2023/02/26 03:23:15;;;;;;;6.32;1.98;;;1.80;99.90;;;;;;2047060;28;20039;-71
2023/02/26 03:24:36;;;;;;;4.50;1.80;;;1.70;99.90;;;;;;2045457;28;20046;-71
2023/02/26 03:25:54;;;;;;;6.57;2.05;;;1.70;99.90;;;;;;2044944;28;20468;-71
2023/02/26 03:27:07;;;;;;;2.42;1.90;;;1.70;99.90;;;;;;2044163;28;20840;-71
2023/02/26 03:28:18;;;;;;;4.00;1.85;;;1.60;99.90;;;;;;2044567;28;20433;-71
2023/02/26 03:29:44;;;;;;;7.78;2.05;;;1.60;99.90;;;;;;2045664;28;20023;-71
2023/02/26 03:31:07;;;;;;;6.13;2.35;;;1.60;99.90;;;;;;2043896;28;20020;-72
2023/02/26 03:32:18;;;;;;;3.47;1.55;;;1.60;99.90;;;;;;2044533;28;20030;-71
2023/02/26 03:33:57;;;;;;;4.70;2.05;;;1.50;99.90;;;;;;2044363;28;20508;-72
2023/02/26 03:35:03;;;;;;;3.70;1.95;;;1.50;99.90;;;;;;2045072;28;20118;-72
2023/02/26 03:36:11;;;;;;;7.35;2.30;;;1.50;99.90;;;;;;2044750;28;20485;-72
2023/02/26 03:37:32;;;;;;;3.63;2.22;;;1.50;99.90;;;;;;2045820;28;20023;-72
2023/02/26 03:39:05;;;;;;;4.75;2.22;;;1.50;99.90;;;;;;2044457;28;20033;-71
2023/02/26 03:40:23;;;;;;;5.32;2.60;;;1.50;99.90;;;;;;2044087;28;20039;-71
2023/02/26 03:41:35;;;;;;;4.53;2.67;;;1.50;99.90;;;;;;2043876;28;20027;-71
2023/02/26 03:42:44;;;;;;;5.93;2.22;;;1.50;99.90;;;;;;2045011;28;20020;-71
2023/02/26 03:43:52;;;;;;;5.00;2.30;;;1.50;99.90;;;;;;2045554;28;20387;-71
2023/02/26 03:45:15;;;;;;;4.93;2.38;;;1.50;99.90;;;;;;2045861;28;20023;-71
2023/02/26 03:46:30;;;;;;;5.18;2.13;;;1.50;99.90;;;;;;2045380;28;20023;-71
2023/02/26 03:47:32;;;;;;;7.57;2.30;;;1.50;99.90;;;;;;2045679;28;20031;-71
2023/02/26 03:48:35;;;;;;;4.47;2.15;;;1.50;99.90;;;;;;2044247;28;20091;-72
2023/02/26 03:49:42;;;;;;;5.57;2.10;;;1.50;99.90;;;;;;2043767;28;20031;-72
2023/02/26 03:50:56;;;;;;;8.90;2.38;;;1.50;99.90;;;;;;2043048;28;20031;-72
2023/02/26 03:51:59;;;;;;;5.57;2.00;;;1.50;99.90;;;;;;2044079;28;20023;-72
2023/02/26 03:53:05;;;;;;;4.55;2.13;;;1.50;99.90;;;;;;2045172;28;20431;-72
2023/02/26 03:54:17;;;;;;;4.25;2.47;;;1.50;99.90;;;;;;2045647;28;22055;-72
2023/02/26 03:55:27;;;;;;;5.30;2.80;;;1.50;99.90;;;;;;2045428;28;20031;-72
2023/02/26 03:56:45;;;;;;;5.30;2.17;;;1.50;99.90;;;;;;2045384;28;20044;-72
2023/02/26 03:57:46;;;;;;;7.30;2.28;;;1.40;99.90;;;;;;2043565;28;20435;-72
2023/02/26 03:58:47;;;;;;;7.28;2.50;;;1.40;99.90;;;;;;2045965;28;20065;-72
2023/02/26 03:59:48;;;;;;;4.97;2.38;;;1.40;99.90;;;;;;2044585;28;20034;-72
2023/02/26 04:00:56;;;;;;;5.28;2.53;;;1.40;99.90;;;;;;2044392;28;20603;-72
2023/02/26 04:02:19;;;;;;;5.82;2.30;;;1.40;99.90;;;;;;2044503;28;20673;-72
2023/02/26 04:03:32;;;;;;;6.65;2.50;;;1.40;99.90;;;;;;2044965;28;20028;-72
2023/02/26 04:04:55;;;;;;;7.45;2.90;;;1.40;99.90;;;;;;2045439;28;20121;-72
2023/02/26 04:05:56;;;;;;;7.05;2.65;;;1.30;99.90;;;;;;2044991;28;20086;-72
2023/02/26 04:06:56;;;;;;;5.80;2.10;;;1.30;99.90;;;;;;2036862;29;20024;-72
2023/02/26 04:07:57;;;;;;;5.25;2.22;;;1.30;99.90;;;;;;2036966;29;20039;-72
2023/02/26 04:09:00;;;;;;;5.97;2.30;;;1.30;99.90;;;;;;2044294;28;20091;-72
2023/02/26 04:10:01;;;;;;;5.05;2.63;;;1.40;99.90;;;;;;2044210;28;20490;-72
2023/02/26 04:11:16;;;;;;;6.28;2.08;;;1.30;99.90;;;;;;2044723;28;20422;-72
2023/02/26 04:12:22;;;;;;;4.85;1.98;;;1.30;99.90;;;;;;2044365;28;20019;-72
2023/02/26 04:13:23;;;;;;;5.43;2.53;;;1.30;99.90;;;;;;2044984;28;20086;-72
2023/02/26 04:14:23;;;;;;;6.30;2.33;;;1.30;99.90;;;;;;2044926;28;20709;-72
2023/02/26 04:15:24;;;;;;;6.65;2.15;;;1.30;99.90;;;;;;2035605;29;20111;-72
2023/02/26 04:16:24;;;;;;;2.67;1.55;;;1.30;99.90;;;;;;2037650;29;20043;-72
2023/02/26 04:17:25;;;;;;;5.13;2.22;;;1.30;99.90;;;;;;2044491;28;20054;-72
2023/02/26 04:18:26;;;;;;;5.55;2.08;;;1.30;99.90;;;;;;2045315;28;20092;-72
2023/02/26 04:19:26;;;;;;;5.10;1.90;;;1.30;99.90;;;;;;2045860;28;20038;-72
2023/02/26 04:20:27;;;;;;;6.72;2.20;;;1.30;99.90;;;;;;2044792;28;20023;-72
2023/02/26 04:21:28;;;;;;;5.55;2.17;;;1.30;99.90;;;;;;2044808;28;20035;-72
2023/02/26 04:22:28;;;;;;;5.30;2.00;;;1.30;99.90;;;;;;2044262;28;20054;-72
2023/02/26 04:23:29;;;;;;;7.07;2.45;;;1.30;99.90;;;;;;2045252;28;20073;-72
2023/02/26 04:24:30;;;;;;;6.63;2.53;;;1.30;99.90;;;;;;2045355;28;20141;-72
2023/02/26 04:25:30;;;;;;;3.58;2.00;;;1.30;99.90;;;;;;2034972;29;20677;-72
2023/02/26 04:26:31;;;;;;;6.25;2.53;;;1.30;99.90;;;;;;2036169;29;20042;-72
2023/02/26 04:27:31;;;;;;;6.00;2.58;;;1.30;99.90;;;;;;2045171;28;20039;-72
2023/02/26 04:28:33;;;;;;;7.13;2.03;;;1.30;99.90;;;;;;2044134;28;20027;-72
2023/02/26 04:29:34;;;;;;;5.90;2.35;;;1.30;99.90;;;;;;2043659;28;20026;-72
2023/02/26 04:30:34;;;;;;;5.47;2.22;;;1.30;99.90;;;;;;2042944;28;20023;-72
2023/02/26 04:31:35;;;;;;;7.68;2.28;;;1.30;99.90;;;;;;2045529;28;20024;-72
2023/02/26 04:32:35;;;;;;;3.35;2.22;;;1.30;99.90;;;;;;2044301;28;20101;-72
2023/02/26 04:33:36;;;;;;;3.35;1.73;;;1.30;99.90;;;;;;2044093;28;20032;-72
2023/02/26 04:34:37;;;;;;;5.03;2.45;;;1.30;99.90;;;;;;2045016;28;20050;-72
2023/02/26 04:35:37;;;;;;;7.28;2.95;;;1.30;99.90;;;;;;2044054;28;20490;-72
2023/02/26 04:36:38;;;;;;;5.55;2.00;;;1.30;99.90;;;;;;2035437;29;20034;-72
2023/02/26 04:37:39;;;;;;;6.18;2.30;;;1.30;99.90;;;;;;2037331;29;20031;-72
2023/02/26 04:38:39;;;;;;;7.00;2.47;;;1.30;99.90;;;;;;2044296;28;20032;-72
2023/02/26 04:39:40;;;;;;;3.28;1.95;;;1.30;99.90;;;;;;2044579;28;20147;-72
2023/02/26 04:40:40;;;;;;;4.30;2.20;;;1.30;99.90;;;;;;2043676;28;20055;-72
2023/02/26 04:41:41;;;;;;;6.45;2.00;;;1.30;99.90;;;;;;2042680;28;20035;-72
2023/02/26 04:42:41;;;;;;;4.78;2.53;;;1.30;99.90;;;;;;2044821;28;20043;-72
2023/02/26 04:43:42;;;;;;;3.95;2.03;;;1.30;99.90;;;;;;2044962;29;20036;-72
2023/02/26 04:44:42;;;;;;;5.32;2.30;;;1.30;99.90;;;;;;2043722;28;20074;-72
2023/02/26 04:45:46;;;;;;;7.20;2.40;;;1.30;99.90;;;;;;2044660;28;20464;-72
2023/02/26 04:46:47;;;;;;;6.55;2.40;;;1.30;99.90;;;;;;2036705;29;20047;-72
2023/02/26 04:47:47;;;;;;;6.70;2.38;;;1.30;99.90;;;;;;2031455;29;20028;-72
2023/02/26 04:48:48;;;;;;;5.78;2.10;;;1.30;99.90;;;;;;2038998;29;20032;-72
2023/02/26 04:49:48;;;;;;;4.32;2.03;;;1.30;99.90;;;;;;2044092;28;20031;-72
2023/02/26 04:50:49;;;;;;;5.35;2.38;;;1.30;99.90;;;;;;2035917;29;20032;-72
2023/02/26 04:51:49;;;;;;;8.60;2.10;;;1.20;99.90;;;;;;2036925;29;20021;-72
2023/02/26 04:52:50;;;;;;;6.32;2.60;;;1.30;99.90;;;;;;2035283;29;20048;-72
2023/02/26 04:53:50;;;;;;;6.43;2.08;;;1.30;99.90;;;;;;2035586;29;20087;-72
2023/02/26 04:54:51;;;;;;;5.05;2.13;;;1.20;99.90;;;;;;2044144;28;20882;-72
2023/02/26 04:55:51;;;;;;;4.32;2.20;;;1.20;99.90;;;;;;2043428;28;20501;-72
2023/02/26 04:56:52;;;;;;;6.13;2.33;;;1.20;99.90;;;;;;2045054;28;20973;-72
2023/02/26 04:57:53;;;;;;;7.47;2.30;;;1.20;99.90;;;;;;2044301;28;20020;-72
2023/02/26 04:58:53;;;;;;;5.20;2.25;;;1.20;99.90;;;;;;2044841;28;20023;-72
2023/02/26 04:59:54;;;;;;;4.28;1.92;;;1.20;99.90;;;;;;2034466;29;20106;-72
2023/02/26 05:00:56;;;;;;;5.45;2.67;;;1.30;99.90;;;;;;2037396;29;20028;-72
2023/02/26 05:01:58;;;;;;;4.68;2.50;;;1.30;99.90;;;;;;2043888;28;20034;-72
2023/02/26 05:02:59;;;;;;;6.32;2.25;;;1.20;99.90;;;;;;2043995;28;20042;-72
2023/02/26 05:04:00;;;;;;;4.57;1.95;;;1.20;99.90;;;;;;2042882;28;20058;-72
2023/02/26 05:05:00;;;;;;;3.70;1.77;;;1.20;99.90;;;;;;2044168;28;20027;-72
2023/02/26 05:06:01;;;;;;;6.57;2.15;;;1.20;99.90;;;;;;2045823;28;20027;-72
2023/02/26 05:07:01;;;;;;;4.95;2.10;;;1.20;99.90;;;;;;2044107;28;20035;-72
2023/02/26 05:08:02;;;;;;;4.15;2.30;;;1.20;99.90;;;;;;2044609;28;20057;-72
2023/02/26 05:09:03;;;;;;;6.10;2.20;;;1.20;99.90;;;;;;2045676;28;20026;-72
2023/02/26 05:10:08;;;;;;;5.57;2.58;;;1.20;99.90;;;;;;2044546;28;20038;-72
2023/02/26 05:11:09;;;;;;;6.55;2.35;;;1.20;99.90;;;;;;2043896;28;20035;-72
2023/02/26 05:12:10;;;;;;;5.60;2.17;;;1.20;99.90;;;;;;2044230;28;20027;-72
2023/02/26 05:13:10;;;;;;;3.60;1.77;;;1.20;99.90;;;;;;2043462;28;20106;-72
2023/02/26 05:14:11;;;;;;;8.10;2.40;;;1.20;99.90;;;;;;2045164;28;20703;-72
2023/02/26 05:15:11;;;;;;;5.82;2.17;;;1.20;99.90;;;;;;2044879;28;20446;-72
2023/02/26 05:16:12;;;;;;;3.97;1.95;;;1.10;99.90;;;;;;2044251;28;20502;-72
2023/02/26 05:17:12;;;;;;;3.92;1.95;;;1.10;99.90;;;;;;2043326;28;20518;-72
2023/02/26 05:18:13;;;;;;;7.35;2.58;;;1.10;99.90;;;;;;2043571;28;20023;-72
2023/02/26 05:19:14;;;;;;;6.10;2.30;;;1.10;99.90;;;;;;2043345;28;20139;-72
2023/02/26 05:20:14;;;;;;;6.13;2.45;;;1.10;99.90;;;;;;2034961;29;20099;-72
2023/02/26 05:21:15;;;;;;;7.68;2.35;;;1.10;99.90;;;;;;2036317;29;20023;-72
2023/02/26 05:22:16;;;;;;;4.32;2.45;;;1.10;99.90;;;;;;2045643;28;20027;-72
2023/02/26 05:23:16;;;;;;;4.80;2.00;;;1.10;99.90;;;;;;2042694;28;20163;-72
2023/02/26 05:24:17;;;;;;;5.00;2.05;;;1.10;99.90;;;;;;2043115;28;20102;-72
2023/02/26 05:25:18;;;;;;;5.47;2.10;;;1.10;99.90;;;;;;2043997;28;20095;-72
2023/02/26 05:26:18;;;;;;;5.22;2.50;;;1.10;99.90;;;;;;2044419;29;20031;-72
2023/02/26 05:27:19;;;;;;;4.43;2.25;;;1.10;99.90;;;;;;2044788;29;20027;-72
2023/02/26 05:28:19;;;;;;;3.28;1.73;;;1.10;99.90;;;;;;2044002;28;20028;-72
2023/02/26 05:29:20;;;;;;;6.13;2.30;;;1.10;99.90;;;;;;2034188;29;20020;-72
2023/02/26 05:30:20;;;;;;;4.38;2.05;;;1.10;99.90;;;;;;2033922;29;20161;-72
2023/02/26 05:31:21;;;;;;;8.45;2.35;;;1.10;99.90;;;;;;2045075;28;20024;-72
2023/02/26 05:32:22;;;;;;;3.45;1.92;;;1.10;99.90;;;;;;2043135;28;20051;-72
2023/02/26 05:33:22;;;;;;;4.55;2.03;;;1.10;99.90;;;;;;2045721;28;20507;-72
2023/02/26 05:34:23;;;;;;;7.40;2.33;;;1.10;99.90;;;;;;2043968;28;20145;-72
2023/02/26 05:35:23;;;;;;;3.53;2.33;;;1.10;99.90;;;;;;2044155;29;20392;-72
2023/02/26 05:36:24;;;;;;;4.75;2.00;;;1.10;99.90;;;;;;2046009;28;20058;-72
2023/02/26 05:37:25;;;;;;;4.68;2.50;;;1.10;99.90;;;;;;2044600;28;20038;-72
2023/02/26 05:38:25;;;;;;;5.72;2.17;;;1.10;99.90;;;;;;2044305;28;20030;-72
2023/02/26 05:39:25;;;;;;;5.63;1.95;;;1.10;99.90;;;;;;2043851;28;20036;-72
2023/02/26 05:40:26;;;;;;;6.03;1.95;;;1.10;99.90;;;;;;2044216;28;20035;-72
2023/02/26 05:41:27;;;;;;;5.00;2.03;;;1.10;99.90;;;;;;2036114;29;20071;-72
2023/02/26 05:42:27;;;;;;;5.30;2.22;;;1.10;99.90;;;;;;2036918;29;20115;-72
2023/02/26 05:43:28;;;;;;;4.90;2.10;;;1.10;99.90;;;;;;2044223;29;20495;-72
2023/02/26 05:44:29;;;;;;;6.97;2.47;;;1.10;99.90;;;;;;2044477;28;20035;-72
2023/02/26 05:45:29;;;;;;;5.10;2.08;;;1.10;99.90;;;;;;2042963;29;20144;-72
2023/02/26 05:46:30;;;;;;;4.20;1.95;;;1.10;99.90;;;;;;2045123;28;20031;-72
2023/02/26 05:47:32;;;;;;;5.03;2.50;;;1.10;99.90;;;;;;2046144;29;20038;-72
2023/02/26 05:48:33;;;;;;;6.10;1.70;;;1.10;99.90;;;;;;2045790;28;20024;-72
2023/02/26 05:49:33;;;;;;;4.40;2.10;;;1.10;99.90;;;;;;2042022;28;20038;-72
2023/02/26 05:50:34;;;;;;;6.25;2.33;;;1.00;99.90;;;;;;2042864;29;20368;-72